| time (UTC) | temp F | wind direction | speed MPH | gust MPH | rain 1hr in | rain 24hr in | rain mn in | humidity % | barometer mb |
| 20260509194537 | 74 | 246 | 3.0 | 14.0 | 0.00 | 0.00 | 0.00 | 54 | 1008.7 |
| 20260509193032 | 73 | 227 | 5.0 | 12.0 | 0.00 | 0.00 | 0.00 | 52 | 1009.1 |
| 20260509191532 | 72 | 228 | 5.0 | 16.0 | 0.00 | 0.00 | 0.00 | 55 | 1009.2 |
| 20260509190031 | 71 | 183 | 6.0 | 15.0 | 0.00 | 0.00 | 0.00 | 55 | 1009.4 |
| 20260509184528 | 71 | 178 | 3.0 | 13.0 | 0.00 | 0.00 | 0.00 | 53 | 1009.5 |
| 20260509183028 | 72 | 182 | 7.0 | 15.0 | 0.00 | 0.00 | 0.00 | 52 | 1009.8 |
| 20260509181539 | 72 | 223 | 9.0 | 16.0 | 0.00 | 0.00 | 0.00 | 54 | 1009.9 |
| 20260509180022 | 70 | 223 | 12.0 | 18.0 | 0.00 | 0.00 | 0.00 | 56 | 1010.3 |
| 20260509174622 | 71 | 229 | 13.0 | 22.0 | 0.00 | 0.01 | 0.00 | 59 | 1010.4 |
| 20260509173023 | 69 | 236 | 4.0 | 17.0 | 0.00 | 0.01 | 0.00 | 63 | 1010.7 |
| 20260509171514 | 69 | 202 | 10.0 | 19.0 | 0.00 | 0.01 | 0.00 | 63 | 1010.8 |
| 20260509170012 | 68 | 350 | 5.0 | 13.0 | 0.00 | 0.01 | 0.00 | 65 | 1010.9 |
| 20260509164512 | 68 | 209 | 6.0 | 17.0 | 0.00 | 0.01 | 0.00 | 64 | 1011.1 |
| 20260509163009 | 68 | 214 | 9.0 | 16.0 | 0.00 | 0.01 | 0.00 | 64 | 1011.1 |
| 20260509161507 | 68 | 197 | 3.0 | 15.0 | 0.00 | 0.01 | 0.00 | 66 | 1011.1 |
| 20260509160008 | 67 | 236 | 9.0 | 21.0 | 0.00 | 0.01 | 0.00 | 64 | 1011.3 |
| 20260509154504 | 67 | 232 | 4.0 | 10.0 | 0.00 | 0.01 | 0.00 | 66 | 1011.5 |
| 20260509153001 | 67 | 313 | 10.0 | 17.0 | 0.00 | 0.01 | 0.00 | 66 | 1011.2 |
| 20260509151559 | 66 | 111 | 4.0 | 10.0 | 0.00 | 0.01 | 0.00 | 67 | 1011.6 |
| 20260509150055 | 64 | 188 | 7.0 | 12.0 | 0.00 | 0.01 | 0.00 | 68 | 1012.0 |
| 20260509144551 | 63 | 244 | 6.0 | 19.0 | 0.00 | 0.01 | 0.00 | 69 | 1012.2 |
| 20260509143049 | 63 | 205 | 6.0 | 11.0 | 0.00 | 0.01 | 0.00 | 69 | 1012.2 |
| 20260509141544 | 61 | 175 | 3.0 | 8.0 | 0.00 | 0.01 | 0.00 | 71 | 1011.8 |
| 20260509140043 | 60 | 185 | 3.0 | 10.0 | 0.00 | 0.01 | 0.00 | 71 | 1012.2 |
| 20260509134534 | 58 | 170 | 4.0 | 10.0 | 0.00 | 0.01 | 0.00 | 72 | 1012.7 |
| 20260509133034 | 58 | 177 | 3.0 | 10.0 | 0.00 | 0.01 | 0.00 | 72 | 1012.7 |
| 20260509131530 | 57 | 160 | 2.0 | 6.0 | 0.00 | 0.01 | 0.00 | 73 | 1012.8 |
| 20260509130029 | 55 | 146 | 3.0 | 7.0 | 0.00 | 0.01 | 0.00 | 77 | 1013.0 |
| 20260509124525 | 54 | 175 | 1.0 | 7.0 | 0.00 | 0.01 | 0.00 | 78 | 1013.1 |
| 20260509123025 | 52 | 136 | 3.0 | 5.0 | 0.00 | 0.01 | 0.00 | 78 | 1013.0 |
| 20260509121525 | 51 | 142 | 2.0 | 7.0 | 0.00 | 0.01 | 0.00 | 77 | 1012.9 |
| 20260509120018 | 51 | 152 | 2.0 | 6.0 | 0.00 | 0.01 | 0.00 | 78 | 1013.0 |
| 20260509114512 | 50 | 151 | 3.0 | 7.0 | 0.00 | 0.01 | 0.00 | 78 | 1013.0 |
| 20260509113008 | 50 | 151 | 3.0 | 7.0 | 0.00 | 0.01 | 0.00 | 77 | 1013.2 |
| 20260509111506 | 49 | 146 | 3.0 | 6.0 | 0.00 | 0.01 | 0.00 | 77 | 1013.1 |
| 20260509110002 | 49 | 146 | 3.0 | 6.0 | 0.00 | 0.01 | 0.00 | 77 | 1012.5 |
| 20260509104559 | 49 | 134 | 2.0 | 8.0 | 0.00 | 0.01 | 0.00 | 77 | 1012.6 |
| 20260509103101 | 48 | 142 | 3.0 | 7.0 | 0.00 | 0.01 | 0.00 | 77 | 1012.7 |
| 20260509101557 | 48 | 165 | 4.0 | 8.0 | 0.00 | 0.01 | 0.00 | 76 | 1012.8 |
| 20260509100053 | 48 | 140 | 4.0 | 7.0 | 0.00 | 0.01 | 0.00 | 75 | 1012.7 |
| 20260509094549 | 49 | 146 | 3.0 | 7.0 | 0.00 | 0.02 | 0.00 | 75 | 1012.7 |
| 20260509093055 | 49 | 138 | 4.0 | 8.0 | 0.00 | 0.02 | 0.00 | 74 | 1012.8 |
| 20260509091547 | 49 | 146 | 2.0 | 4.0 | 0.00 | 0.02 | 0.00 | 73 | 1012.9 |
| 20260509090044 | 50 | 145 | 1.0 | 4.0 | 0.00 | 0.02 | 0.00 | 73 | 1013.1 |
| 20260509084550 | 50 | 145 | 3.0 | 5.0 | 0.00 | 0.02 | 0.00 | 71 | 1013.0 |
| 20260509083040 | 50 | 142 | 3.0 | 6.0 | 0.00 | 0.02 | 0.00 | 71 | 1012.8 |
| 20260509081542 | 51 | 167 | 1.0 | 3.0 | 0.00 | 0.02 | 0.00 | 70 | 1012.8 |
| 20260509080049 | 51 | 167 | 1.0 | 5.0 | 0.00 | 0.02 | 0.00 | 70 | 1012.9 |
| 20260509074537 | 51 | 145 | 0.0 | 0.0 | 0.00 | 0.02 | 0.00 | 69 | 1013.1 |
| 20260509073035 | 52 | 145 | 0.0 | 0.0 | 0.00 | 0.02 | 0.00 | 68 | 1013.3 |
| 20260509071530 | 52 | 145 | 0.0 | 0.0 | 0.00 | 0.02 | 0.00 | 65 | 1013.3 |
| 20260509070028 | 52 | 145 | 0.0 | 2.0 | 0.00 | 0.02 | 0.00 | 64 | 1013.4 |
| 20260509064526 | 53 | 145 | 1.0 | 3.0 | 0.00 | 0.02 | 0.00 | 64 | 1013.6 |
| 20260509063022 | 54 | 144 | 2.0 | 4.0 | 0.00 | 0.02 | 0.00 | 63 | 1013.6 |
| 20260509061519 | 54 | 169 | 0.0 | 2.0 | 0.00 | 0.02 | 0.00 | 61 | 1014.1 |
| 20260509060020 | 54 | 169 | 0.0 | 1.0 | 0.00 | 0.02 | 0.00 | 60 | 1014.3 |
| 20260509054518 | 54 | 169 | 0.0 | 1.0 | 0.00 | 0.02 | 0.00 | 60 | 1014.3 |
| 20260509053021 | 55 | 169 | 0.0 | 3.0 | 0.00 | 0.02 | 0.00 | 59 | 1014.5 |
| 20260509051513 | 55 | 169 | 1.0 | 5.0 | 0.00 | 0.02 | 0.00 | 59 | 1014.6 |
| 20260509050014 | 55 | 148 | 2.0 | 3.0 | 0.00 | 0.02 | 0.00 | 59 | 1014.3 |
| 20260509044510 | 55 | 147 | 2.0 | 4.0 | 0.00 | 0.02 | 0.00 | 58 | 1014.3 |
| 20260509043009 | 56 | 147 | 2.0 | 5.0 | 0.00 | 0.02 | 0.00 | 56 | 1014.2 |
| 20260509041509 | 56 | 144 | 3.0 | 5.0 | 0.00 | 0.02 | 0.00 | 55 | 1014.2 |
| 20260509040002 | 57 | 166 | 2.0 | 3.0 | 0.00 | 0.02 | 0.00 | 55 | 1014.3 |
| 20260509034602 | 57 | 166 | 2.0 | 5.0 | 0.00 | 0.02 | 0.02 | 54 | 1014.5 |
| 20260509034500 | 57 | 167 | 2.0 | 5.0 | 0.00 | 0.02 | 0.02 | 54 | 1014.5 |
| 20260509033116 | 57 | 152 | 2.0 | 5.0 | 0.00 | 0.02 | 0.02 | 53 | 1014.5 |
| 20260509031605 | 58 | 165 | 2.0 | 6.0 | 0.00 | 0.02 | 0.02 | 52 | 1014.6 |
| 20260509030100 | 58 | 190 | 1.0 | 7.0 | 0.00 | 0.02 | 0.02 | 51 | 1014.9 |
| 20260509024559 | 58 | 148 | 2.0 | 5.0 | 0.00 | 0.02 | 0.02 | 51 | 1015.0 |
| 20260509023105 | 58 | 165 | 1.0 | 5.0 | 0.00 | 0.02 | 0.02 | 50 | 1014.9 |
| 20260509021559 | 59 | 155 | 1.0 | 5.0 | 0.00 | 0.02 | 0.02 | 50 | 1015.0 |
| 20260509020057 | 59 | 160 | 2.0 | 7.0 | 0.00 | 0.02 | 0.02 | 49 | 1015.0 |
| 20260509014555 | 60 | 176 | 2.0 | 5.0 | 0.00 | 0.02 | 0.02 | 48 | 1014.8 |
| 20260509013104 | 60 | 181 | 2.0 | 4.0 | 0.00 | 0.02 | 0.02 | 47 | 1014.7 |
| 20260509011555 | 61 | 194 | 1.0 | 4.0 | 0.00 | 0.02 | 0.02 | 45 | 1014.5 |
| 20260509010054 | 62 | 189 | 2.0 | 5.0 | 0.00 | 0.02 | 0.02 | 44 | 1014.3 |
| 20260509004602 | 63 | 204 | 2.0 | 5.0 | 0.00 | 0.02 | 0.02 | 43 | 1014.4 |
| 20260509003053 | 63 | 191 | 2.0 | 4.0 | 0.00 | 0.02 | 0.02 | 43 | 1014.5 |
| 20260509001552 | 64 | 178 | 2.0 | 5.0 | 0.00 | 0.02 | 0.02 | 42 | 1014.4 |
| 20260509000052 | 65 | 189 | 1.0 | 7.0 | 0.00 | 0.02 | 0.02 | 41 | 1014.3 |
| 20260508234551 | 66 | 190 | 3.0 | 7.0 | 0.00 | 0.02 | 0.02 | 40 | 1014.1 |
| 20260508233101 | 67 | 147 | 3.0 | 10.0 | 0.00 | 0.02 | 0.02 | 39 | 1014.1 |
| 20260508231552 | 68 | 181 | 3.0 | 8.0 | 0.00 | 0.02 | 0.02 | 38 | 1013.9 |
| 20260508230055 | 68 | 189 | 3.0 | 14.0 | 0.00 | 0.02 | 0.02 | 38 | 1013.6 |
| 20260508224600 | 68 | 171 | 6.0 | 17.0 | 0.00 | 0.02 | 0.02 | 37 | 1013.6 |
| 20260508223048 | 69 | 238 | 7.0 | 11.0 | 0.00 | 0.02 | 0.02 | 37 | 1013.4 |
| 20260508221547 | 70 | 188 | 7.0 | 14.0 | 0.00 | 0.02 | 0.02 | 35 | 1013.6 |
| 20260508220047 | 69 | 221 | 3.0 | 11.0 | 0.00 | 0.02 | 0.02 | 35 | 1013.5 |
| 20260508214547 | 69 | 264 | 4.0 | 9.0 | 0.00 | 0.03 | 0.02 | 35 | 1013.7 |
| 20260508213047 | 70 | 217 | 7.0 | 15.0 | 0.00 | 0.03 | 0.02 | 34 | 1014.1 |
| 20260508211545 | 69 | 168 | 6.0 | 14.0 | 0.00 | 0.03 | 0.02 | 35 | 1014.2 |
| 20260508210045 | 70 | 232 | 5.0 | 10.0 | 0.00 | 0.03 | 0.02 | 36 | 1014.3 |
| 20260508204549 | 69 | 242 | 6.0 | 12.0 | 0.00 | 0.03 | 0.02 | 34 | 1014.4 |
| 20260508203052 | 69 | 243 | 5.0 | 12.0 | 0.00 | 0.03 | 0.02 | 34 | 1014.7 |
| 20260508201542 | 69 | 279 | 5.0 | 18.0 | 0.00 | 0.03 | 0.02 | 36 | 1014.8 |
| 20260508200050 | 69 | 197 | 8.0 | 13.0 | 0.00 | 0.03 | 0.02 | 32 | 1014.9 |